WATT/KOE METAR and TAF weather

Enter ICAO airport designator
Station Type Date Time Source
WATT METAR 2021/01/17 12:00 UTC NOAA

WATT 171200Z 14002KT 8000 FEW017 25/25 Q1008 NOSIG


Station Type Date Time Source
WATT Decoded METAR 2021/01/17 12:00 UTC NOAA

Station name not available
Jan 17, 2021 - 07:00 AM EST / 2021.01.17 1200 UTC
Wind: from the SE (140 degrees) at 2 MPH (2 KT):0
Visibility: 4 mile(s):0
Sky conditions: mostly clear
Temperature: 77 F (25 C)
Dew Point: 77 F (25 C)
Relative Humidity: 100%
Pressure (altimeter): 29.77 in. Hg (1008 hPa)
ob: WATT 171200Z 14002KT 8000 FEW017 25/25 Q1008 NOSIG
cycle: 12

Station Type Date Time Source
WATT TAF 2021/01/17 18:00 UTC NOAA

TAF WATT 171700Z 1718/1818 24002KT 8000 SCT018 PROB40
TEMPO 1719/1723 32005KT 3000 TSRA FEW015CB BKN015
BECMG 1801/1803 22005KT 9999 FEW017

Example: see airport list